Disney Magic — C6PT7 — position and weather

sailwx.info

Track history (hours):
 
Tides and Currents Weather Stations Pressure Air Temp Water Temp Dewpoint Dewpoint Depression Visibility Wind Speed Wind Dir Waves Ship Positions

Disney Magic

Last reported at 2014-Aug-20 00:03 UTC. Time now 2014-Aug-22 00:02 UTC.
Position N 42°25' E 010°28'.

Type: Passenger vessel. MMSI: 308516000.

Date/timePositionNaut miles runAvg speedWind from/ knotsBaromVisibWave heightAir tempDewpointWater temp
2014-Aug-20 00:03N 42°25' E 010°28'1520.5
2014-Aug-19 23:20N 42°36' E 010°15'3117.2
2014-Aug-19 21:32N 43°05' E 010°00'2020.3
2014-Aug-19 20:33N 43°24' E 010°06'1919.1
2014-Aug-19 19:33N 43°41' E 009°52'2019.6
2014-Aug-19 18:34N 44°00' E 009°52'6 6.0
2014-Aug-19 17:32N 44°06' E 009°50'0 0.0
2014-Aug-19 16:32N 44°06' E 009°50'0 0.0
2014-Aug-19 15:32N 44°06' E 009°50'0 0.0
2014-Aug-19 14:32N 44°06' E 009°50'0 0.0
2014-Aug-19 13:32N 44°06' E 009°50'0 0.0
2014-Aug-19 12:29N 44°06' E 009°50'0 0.0
2014-Aug-19 11:32N 44°06' E 009°50'0 0.0
2014-Aug-19 10:32N 44°06' E 009°50'0 0.0
2014-Aug-19 09:32N 44°06' E 009°50'0 0.0
2014-Aug-19 08:32N 44°06' E 009°50'0 0.0
2014-Aug-19 07:32N 44°06' E 009°50'0 0.0
2014-Aug-19 06:32N 44°06' E 009°50'0 0.0
2014-Aug-19 05:32N 44°06' E 009°50'0 0.1
2014-Aug-19 04:34N 44°06' E 009°50'6 6.3
2014-Aug-19 03:33N 44°01' E 009°55'8 7.7
2014-Aug-19 02:33N 43°56' E 009°48'9 9.0
2014-Aug-19 01:33N 43°52' E 009°36'9 9.2
2014-Aug-19 00:33N 43°48' E 009°25'9 9.3
2014-Aug-18 23:33N 43°44' E 009°13'9 9.3
2014-Aug-18 22:33N 43°42' E 009°01'1313.5
2014-Aug-18 21:34N 43°39' E 008°43'1616.2
2014-Aug-18 20:34N 43°35' E 008°21'3115.4
2014-Aug-18 18:33N 43°38' E 007°38'1414.3
2014-Aug-18 17:33N 43°40' E 007°19'1 1.2
2014-Aug-18 16:30N 43°41' E 007°19'0 0.1
2014-Aug-18 15:30N 43°42' E 007°19'0 0.1
2014-Aug-18 14:30N 43°41' E 007°19'0 0.0
2014-Aug-18 13:30N 43°41' E 007°19'0 0.0
2014-Aug-18 12:30N 43°41' E 007°19'0 0.0
2014-Aug-18 11:24N 43°41' E 007°19'0 0.0
2014-Aug-18 10:30N 43°41' E 007°19'0 0.0
2014-Aug-18 09:24N 43°41' E 007°19'0 0.0
2014-Aug-18 08:30N 43°41' E 007°19'0 0.0
2014-Aug-18 07:30N 43°41' E 007°19'0 0.0
2014-Aug-18 06:30N 43°41' E 007°19'0 0.0
2014-Aug-18 05:30N 43°41' E 007°19'2 1.8
2014-Aug-18 04:32N 43°40' E 007°19'7 6.8
2014-Aug-18 03:33N 43°33' E 007°16'8 8.3
2014-Aug-18 02:33N 43°25' E 007°15'8 7.9
2014-Aug-18 01:33N 43°18' E 007°11'8 8.4
2014-Aug-18 00:33N 43°13' E 007°02'42 7.0
2014-Aug-17 18:33N 42°49' E 006°15'8 8.0
2014-Aug-17 17:33N 42°51' E 006°04'8 8.3
2014-Aug-17 16:33N 42°51' E 005°53'9 8.6
2014-Aug-17 15:33N 42°51' E 005°41'9 8.7
2014-Aug-17 14:33N 42°52' E 005°29'8 8.4
2014-Aug-17 13:33N 42°52' E 005°18'9 8.6
2014-Aug-17 12:33N 42°52' E 005°06'9 8.5
2014-Aug-17 11:33N 42°52' E 004°54'8 8.4
2014-Aug-17 10:33N 42°52' E 004°43'9 8.8
2014-Aug-17 09:33N 42°52' E 004°31'9 9.4
2014-Aug-17 08:33N 42°52' E 004°18'1010.0
2014-Aug-17 07:33N 42°52' E 004°05'9 8.6
2014-Aug-17 06:33N 42°50' E 003°53'10 9.8
2014-Aug-17 05:33N 42°40' E 003°50'9 9.4
2014-Aug-17 04:33N 42°31' E 003°46'9 9.2
2014-Aug-17 03:33N 42°22' E 003°43'9 8.7
2014-Aug-17 02:33N 42°14' E 003°39'8 8.0
2014-Aug-17 01:33N 42°06' E 003°36'8 8.5
2014-Aug-17 00:34N 41°58' E 003°33'9 8.7
2014-Aug-16 23:33N 41°50' E 003°29'9 8.7
2014-Aug-16 22:33N 41°42' E 003°24'9 9.0
2014-Aug-16 21:34N 41°38' E 003°13'10 9.5
2014-Aug-16 20:33N 41°34' E 003°02'10 9.6
2014-Aug-16 19:33N 41°30' E 002°50'9 9.1
2014-Aug-16 18:33N 41°25' E 002°40'9 9.3
2014-Aug-16 17:33N 41°21' E 002°29'9 9.4
2014-Aug-16 16:33N 41°17' E 002°17'2 0.1
2014-Aug-16 01:27N 41°16' E 002°18'8 9.2
2014-Aug-16 00:33N 41°16' E 002°29'10 9.7
2014-Aug-15 23:34N 41°16' E 002°42'1515.0
2014-Aug-15 22:33N 41°16' E 003°02'1616.3
2014-Aug-15 21:33N 41°16' E 003°24'1615.8
2014-Aug-15 20:33N 41°17' E 003°45'1515.5
2014-Aug-15 19:33N 41°17' E 004°05'1515.0
2014-Aug-15 18:33N 41°17' E 004°25'1514.5
2014-Aug-15 17:33N 41°17' E 004°45'258 5.9
2014-Aug-13 21:33N 43°05' E 010°00'1919.0
2014-Aug-13 20:33N 43°24' E 010°04'1817.6
2014-Aug-13 19:33N 43°40' E 009°52'1918.8
2014-Aug-13 18:34N 43°58' E 009°52'7 7.0
2014-Aug-13 17:32N 44°05' E 009°49'0 0.0
2014-Aug-13 16:32N 44°05' E 009°49'0 0.0
2014-Aug-13 15:32N 44°05' E 009°49'0 0.0
2014-Aug-13 14:32N 44°05' E 009°49'0 0.0
2014-Aug-13 13:32N 44°05' E 009°49'0 0.0
2014-Aug-13 12:32N 44°05' E 009°49'0 0.0
2014-Aug-13 11:32N 44°05' E 009°49'0 0.0
2014-Aug-13 10:29N 44°05' E 009°49'0 0.0
2014-Aug-13 09:32N 44°05' E 009°49'0 0.0
2014-Aug-13 08:32N 44°05' E 009°49'0 0.0
2014-Aug-13 07:32N 44°05' E 009°49'0 0.0
2014-Aug-13 06:29N 44°05' E 009°49'0 0.0
2014-Aug-13 05:32N 44°05' E 009°49'0 0.0
2014-Aug-13 04:32N 44°05' E 009°49'2 2.3
2014-Aug-13 03:33N 44°04' E 009°52'6 5.9
2014-Aug-13 02:33N 43°58' E 009°54'8 7.9
2014-Aug-13 01:33N 43°55' E 009°44'9 8.5
2014-Aug-13 00:33N 43°51' E 009°34'1111.4
2014-Aug-12 23:33N 43°47' E 009°19'1615.5
2014-Aug-12 22:33N 43°41' E 008°59'1515.2
2014-Aug-12 21:33N 43°38' E 008°38'1514.7
2014-Aug-12 20:33N 43°34' E 008°19'1414.2
2014-Aug-12 19:33N 43°35' E 007°59'1414.1
2014-Aug-12 18:33N 43°37' E 007°40'1413.7
2014-Aug-12 17:33N 43°38' E 007°21'3 3.2
2014-Aug-12 16:29N 43°41' E 007°19'0 0.0
2014-Aug-12 15:32N 43°41' E 007°19'0 0.0
2014-Aug-12 14:32N 43°41' E 007°19'0 0.0
2014-Aug-12 13:26N 43°41' E 007°19'0 0.0
2014-Aug-12 12:32N 43°41' E 007°19'0 0.0
2014-Aug-12 10:20N 43°41' E 007°19'0 0.0
2014-Aug-12 09:26N 43°41' E 007°19'0 0.0
2014-Aug-12 08:32N 43°41' E 007°19'0 0.0
2014-Aug-12 07:26N 43°41' E 007°19'0 0.0
2014-Aug-12 06:32N 43°41' E 007°19'7 7.5
2014-Aug-12 05:33N 43°35' E 007°14'2020.2
2014-Aug-12 04:34N 43°18' E 006°59'2019.6
2014-Aug-12 03:33N 43°03' E 006°42'1919.3
2014-Aug-12 02:34N 42°50' E 006°22'2019.6
2014-Aug-12 01:34N 42°41' E 005°58'2020.4
2014-Aug-12 00:33N 42°32' E 005°34'2020.2
2014-Aug-11 23:33N 42°23' E 005°09'4020.1
2014-Aug-11 21:33N 42°04' E 004°21'2019.5
2014-Aug-11 20:33N 41°55' E 003°58'1918.6
2014-Aug-11 19:33N 41°47' E 003°35'1818.5
2014-Aug-11 18:34N 41°39' E 003°14'5116.2
2014-Aug-11 15:25N 41°20' E 002°10'1 1.7
2014-Aug-11 14:32N 41°21' E 002°11'0 0.0
2014-Aug-11 11:32N 41°21' E 002°11'0 0.0
2014-Aug-11 06:26N 41°21' E 002°11'0 0.0
2014-Aug-11 05:14N 41°21' E 002°11'0 0.0
2014-Aug-11 03:32N 41°21' E 002°11'1 1.4
2014-Aug-11 02:32N 41°20' E 002°10'7 7.6
2014-Aug-11 01:33N 41°13' E 002°11'8 8.4
2014-Aug-11 00:33N 41°04' E 002°09'8 8.1
2014-Aug-10 23:34N 40°58' E 002°03'8 7.6
2014-Aug-10 22:33N 40°51' E 001°59'9 8.6
2014-Aug-10 21:33N 40°44' E 002°06'8 8.1
2014-Aug-10 20:33N 40°36' E 002°04'8 8.3
2014-Aug-10 19:33N 40°29' E 001°58'7 6.7
2014-Aug-10 18:34N 40°25' E 002°05'8 8.2
2014-Aug-10 17:33N 40°22' E 002°15'8 7.5
2014-Aug-10 16:33N 40°18' E 002°23'6 5.8
2014-Aug-10 15:33N 40°12' E 002°22'8 8.3
2014-Aug-10 14:34N 40°10' E 002°11'8 8.4
2014-Aug-10 13:33N 40°07' E 002°01'8 8.2
2014-Aug-10 12:33N 40°05' E 001°50'7 7.5
2014-Aug-10 11:33N 40°02' E 001°41'5 5.3
2014-Aug-10 10:33N 40°00' E 001°35'7 7.4
2014-Aug-10 09:33N 39°57' E 001°26'8 7.9
2014-Aug-10 08:33N 39°49' E 001°27'8 7.7
2014-Aug-10 07:33N 39°44' E 001°34'9 8.8
2014-Aug-10 06:31N 39°39' E 001°44'8 8.5
2014-Aug-10 05:33N 39°31' E 001°43'6 6.4
2014-Aug-10 04:33N 39°33' E 001°36'11 8.6
2014-Aug-10 03:15N 39°38' E 001°23'6 8.3
2014-Aug-10 02:32N 39°40' E 001°15'9 8.6
2014-Aug-10 01:27N 39°35' E 001°05'10 8.9
2014-Aug-10 00:20N 39°25' E 001°09'  
Track history (hours):
 
Tides and Currents Weather Stations Pressure Air Temp Water Temp Dewpoint Dewpoint Depression Visibility Wind Speed Wind Dir Waves Ship Positions

Disney Magic

Last reported at 2014-Aug-20 00:03 UTC. Time now 2014-Aug-22 00:02 UTC.
Position N 42°25' E 010°28'.

Type: Passenger vessel. MMSI: 308516000.

Date/timePositionNaut miles runAvg speedWind from/ knotsBaromVisibWave heightAir tempDewpointWater temp
2014-Aug-20 00:03N 42°25' E 010°28'1520.5
2014-Aug-19 23:20N 42°36' E 010°15'3117.2
2014-Aug-19 21:32N 43°05' E 010°00'2020.3
2014-Aug-19 20:33N 43°24' E 010°06'1919.1
2014-Aug-19 19:33N 43°41' E 009°52'2019.6
2014-Aug-19 18:34N 44°00' E 009°52'6 6.0
2014-Aug-19 17:32N 44°06' E 009°50'0 0.0
2014-Aug-19 16:32N 44°06' E 009°50'0 0.0
2014-Aug-19 15:32N 44°06' E 009°50'0 0.0
2014-Aug-19 14:32N 44°06' E 009°50'0 0.0
2014-Aug-19 13:32N 44°06' E 009°50'0 0.0
2014-Aug-19 12:29N 44°06' E 009°50'0 0.0
2014-Aug-19 11:32N 44°06' E 009°50'0 0.0
2014-Aug-19 10:32N 44°06' E 009°50'0 0.0
2014-Aug-19 09:32N 44°06' E 009°50'0 0.0
2014-Aug-19 08:32N 44°06' E 009°50'0 0.0
2014-Aug-19 07:32N 44°06' E 009°50'0 0.0
2014-Aug-19 06:32N 44°06' E 009°50'0 0.0
2014-Aug-19 05:32N 44°06' E 009°50'0 0.1
2014-Aug-19 04:34N 44°06' E 009°50'6 6.3
2014-Aug-19 03:33N 44°01' E 009°55'8 7.7
2014-Aug-19 02:33N 43°56' E 009°48'9 9.0
2014-Aug-19 01:33N 43°52' E 009°36'9 9.2
2014-Aug-19 00:33N 43°48' E 009°25'9 9.3
2014-Aug-18 23:33N 43°44' E 009°13'9 9.3
2014-Aug-18 22:33N 43°42' E 009°01'1313.5
2014-Aug-18 21:34N 43°39' E 008°43'1616.2
2014-Aug-18 20:34N 43°35' E 008°21'3115.4
2014-Aug-18 18:33N 43°38' E 007°38'1414.3
2014-Aug-18 17:33N 43°40' E 007°19'1 1.2
2014-Aug-18 16:30N 43°41' E 007°19'0 0.1
2014-Aug-18 15:30N 43°42' E 007°19'0 0.1
2014-Aug-18 14:30N 43°41' E 007°19'0 0.0
2014-Aug-18 13:30N 43°41' E 007°19'0 0.0
2014-Aug-18 12:30N 43°41' E 007°19'0 0.0
2014-Aug-18 11:24N 43°41' E 007°19'0 0.0
2014-Aug-18 10:30N 43°41' E 007°19'0 0.0
2014-Aug-18 09:24N 43°41' E 007°19'0 0.0
2014-Aug-18 08:30N 43°41' E 007°19'0 0.0
2014-Aug-18 07:30N 43°41' E 007°19'0 0.0
2014-Aug-18 06:30N 43°41' E 007°19'0 0.0
2014-Aug-18 05:30N 43°41' E 007°19'2 1.8
2014-Aug-18 04:32N 43°40' E 007°19'7 6.8
2014-Aug-18 03:33N 43°33' E 007°16'8 8.3
2014-Aug-18 02:33N 43°25' E 007°15'8 7.9
2014-Aug-18 01:33N 43°18' E 007°11'8 8.4
2014-Aug-18 00:33N 43°13' E 007°02'42 7.0
2014-Aug-17 18:33N 42°49' E 006°15'8 8.0
2014-Aug-17 17:33N 42°51' E 006°04'8 8.3
2014-Aug-17 16:33N 42°51' E 005°53'9 8.6
2014-Aug-17 15:33N 42°51' E 005°41'9 8.7
2014-Aug-17 14:33N 42°52' E 005°29'8 8.4
2014-Aug-17 13:33N 42°52' E 005°18'9 8.6
2014-Aug-17 12:33N 42°52' E 005°06'9 8.5
2014-Aug-17 11:33N 42°52' E 004°54'8 8.4
2014-Aug-17 10:33N 42°52' E 004°43'9 8.8
2014-Aug-17 09:33N 42°52' E 004°31'9 9.4
2014-Aug-17 08:33N 42°52' E 004°18'1010.0
2014-Aug-17 07:33N 42°52' E 004°05'9 8.6
2014-Aug-17 06:33N 42°50' E 003°53'10 9.8
2014-Aug-17 05:33N 42°40' E 003°50'9 9.4
2014-Aug-17 04:33N 42°31' E 003°46'9 9.2
2014-Aug-17 03:33N 42°22' E 003°43'9 8.7
2014-Aug-17 02:33N 42°14' E 003°39'8 8.0
2014-Aug-17 01:33N 42°06' E 003°36'8 8.5
2014-Aug-17 00:34N 41°58' E 003°33'9 8.7
2014-Aug-16 23:33N 41°50' E 003°29'9 8.7
2014-Aug-16 22:33N 41°42' E 003°24'9 9.0
2014-Aug-16 21:34N 41°38' E 003°13'10 9.5
2014-Aug-16 20:33N 41°34' E 003°02'10 9.6
2014-Aug-16 19:33N 41°30' E 002°50'9 9.1
2014-Aug-16 18:33N 41°25' E 002°40'9 9.3
2014-Aug-16 17:33N 41°21' E 002°29'9 9.4
2014-Aug-16 16:33N 41°17' E 002°17'2 0.1
2014-Aug-16 01:27N 41°16' E 002°18'8 9.2
2014-Aug-16 00:33N 41°16' E 002°29'10 9.7
2014-Aug-15 23:34N 41°16' E 002°42'1515.0
2014-Aug-15 22:33N 41°16' E 003°02'1616.3
2014-Aug-15 21:33N 41°16' E 003°24'1615.8
2014-Aug-15 20:33N 41°17' E 003°45'1515.5
2014-Aug-15 19:33N 41°17' E 004°05'1515.0
2014-Aug-15 18:33N 41°17' E 004°25'1514.5
2014-Aug-15 17:33N 41°17' E 004°45'258 5.9
2014-Aug-13 21:33N 43°05' E 010°00'1919.0
2014-Aug-13 20:33N 43°24' E 010°04'1817.6
2014-Aug-13 19:33N 43°40' E 009°52'1918.8
2014-Aug-13 18:34N 43°58' E 009°52'7 7.0
2014-Aug-13 17:32N 44°05' E 009°49'0 0.0
2014-Aug-13 16:32N 44°05' E 009°49'0 0.0
2014-Aug-13 15:32N 44°05' E 009°49'0 0.0
2014-Aug-13 14:32N 44°05' E 009°49'0 0.0
2014-Aug-13 13:32N 44°05' E 009°49'0 0.0
2014-Aug-13 12:32N 44°05' E 009°49'0 0.0
2014-Aug-13 11:32N 44°05' E 009°49'0 0.0
2014-Aug-13 10:29N 44°05' E 009°49'0 0.0
2014-Aug-13 09:32N 44°05' E 009°49'0 0.0
2014-Aug-13 08:32N 44°05' E 009°49'0 0.0
2014-Aug-13 07:32N 44°05' E 009°49'0 0.0
2014-Aug-13 06:29N 44°05' E 009°49'0 0.0
2014-Aug-13 05:32N 44°05' E 009°49'0 0.0
2014-Aug-13 04:32N 44°05' E 009°49'2 2.3
2014-Aug-13 03:33N 44°04' E 009°52'6 5.9
2014-Aug-13 02:33N 43°58' E 009°54'8 7.9
2014-Aug-13 01:33N 43°55' E 009°44'9 8.5
2014-Aug-13 00:33N 43°51' E 009°34'1111.4
2014-Aug-12 23:33N 43°47' E 009°19'1615.5
2014-Aug-12 22:33N 43°41' E 008°59'1515.2
2014-Aug-12 21:33N 43°38' E 008°38'1514.7
2014-Aug-12 20:33N 43°34' E 008°19'1414.2
2014-Aug-12 19:33N 43°35' E 007°59'1414.1
2014-Aug-12 18:33N 43°37' E 007°40'1413.7
2014-Aug-12 17:33N 43°38' E 007°21'3 3.2
2014-Aug-12 16:29N 43°41' E 007°19'0 0.0
2014-Aug-12 15:32N 43°41' E 007°19'0 0.0
2014-Aug-12 14:32N 43°41' E 007°19'0 0.0
2014-Aug-12 13:26N 43°41' E 007°19'0 0.0
2014-Aug-12 12:32N 43°41' E 007°19'0 0.0
2014-Aug-12 10:20N 43°41' E 007°19'0 0.0
2014-Aug-12 09:26N 43°41' E 007°19'0 0.0
2014-Aug-12 08:32N 43°41' E 007°19'0 0.0
2014-Aug-12 07:26N 43°41' E 007°19'0 0.0
2014-Aug-12 06:32N 43°41' E 007°19'7 7.5
2014-Aug-12 05:33N 43°35' E 007°14'2020.2
2014-Aug-12 04:34N 43°18' E 006°59'2019.6
2014-Aug-12 03:33N 43°03' E 006°42'1919.3
2014-Aug-12 02:34N 42°50' E 006°22'2019.6
2014-Aug-12 01:34N 42°41' E 005°58'2020.4
2014-Aug-12 00:33N 42°32' E 005°34'2020.2
2014-Aug-11 23:33N 42°23' E 005°09'4020.1
2014-Aug-11 21:33N 42°04' E 004°21'2019.5
2014-Aug-11 20:33N 41°55' E 003°58'1918.6
2014-Aug-11 19:33N 41°47' E 003°35'1818.5
2014-Aug-11 18:34N 41°39' E 003°14'5116.2
2014-Aug-11 15:25N 41°20' E 002°10'1 1.7
2014-Aug-11 14:32N 41°21' E 002°11'0 0.0
2014-Aug-11 11:32N 41°21' E 002°11'0 0.0
2014-Aug-11 06:26N 41°21' E 002°11'0 0.0
2014-Aug-11 05:14N 41°21' E 002°11'0 0.0
2014-Aug-11 03:32N 41°21' E 002°11'1 1.4
2014-Aug-11 02:32N 41°20' E 002°10'7 7.6
2014-Aug-11 01:33N 41°13' E 002°11'8 8.4
2014-Aug-11 00:33N 41°04' E 002°09'8 8.1
2014-Aug-10 23:34N 40°58' E 002°03'8 7.6
2014-Aug-10 22:33N 40°51' E 001°59'9 8.6
2014-Aug-10 21:33N 40°44' E 002°06'8 8.1
2014-Aug-10 20:33N 40°36' E 002°04'8 8.3
2014-Aug-10 19:33N 40°29' E 001°58'7 6.7
2014-Aug-10 18:34N 40°25' E 002°05'8 8.2
2014-Aug-10 17:33N 40°22' E 002°15'8 7.5
2014-Aug-10 16:33N 40°18' E 002°23'6 5.8
2014-Aug-10 15:33N 40°12' E 002°22'8 8.3
2014-Aug-10 14:34N 40°10' E 002°11'8 8.4
2014-Aug-10 13:33N 40°07' E 002°01'8 8.2
2014-Aug-10 12:33N 40°05' E 001°50'7 7.5
2014-Aug-10 11:33N 40°02' E 001°41'5 5.3
2014-Aug-10 10:33N 40°00' E 001°35'7 7.4
2014-Aug-10 09:33N 39°57' E 001°26'8 7.9
2014-Aug-10 08:33N 39°49' E 001°27'8 7.7
2014-Aug-10 07:33N 39°44' E 001°34'9 8.8
2014-Aug-10 06:31N 39°39' E 001°44'8 8.5
2014-Aug-10 05:33N 39°31' E 001°43'6 6.4
2014-Aug-10 04:33N 39°33' E 001°36'11 8.6
2014-Aug-10 03:15N 39°38' E 001°23'6 8.3
2014-Aug-10 02:32N 39°40' E 001°15'9 8.6
2014-Aug-10 01:27N 39°35' E 001°05'10 8.9
2014-Aug-10 00:20N 39°25' E 001°09'  

Dump ship's entire track history